sensor_id;sensor_type;location;lat;lon;timestamp;pressure;altitude;pressure_sealevel;temperature;humidity
59939;BME280;45801;51.810;19.444;2023-08-12T00:00:57;99755.63;;;15.58;63.42
59939;BME280;45801;51.810;19.444;2023-08-12T00:03:31;99758.36;;;15.55;63.46
59939;BME280;45801;51.810;19.444;2023-08-12T00:05:58;99758.79;;;15.52;63.50
59939;BME280;45801;51.810;19.444;2023-08-12T00:08:26;99759.20;;;15.48;63.31
59939;BME280;45801;51.810;19.444;2023-08-12T00:10:53;99760.88;;;15.46;63.39
59939;BME280;45801;51.810;19.444;2023-08-12T00:13:20;99763.63;;;15.43;63.29
59939;BME280;45801;51.810;19.444;2023-08-12T00:15:47;99766.58;;;15.42;63.23
59939;BME280;45801;51.810;19.444;2023-08-12T00:18:13;99767.74;;;15.40;63.42
59939;BME280;45801;51.810;19.444;2023-08-12T00:20:41;99769.07;;;15.36;63.45
59939;BME280;45801;51.810;19.444;2023-08-12T00:23:08;99769.66;;;15.33;63.53
59939;BME280;45801;51.810;19.444;2023-08-12T00:25:35;99768.13;;;15.29;63.67
59939;BME280;45801;51.810;19.444;2023-08-12T00:28:01;99768.56;;;15.27;63.80
59939;BME280;45801;51.810;19.444;2023-08-12T00:30:28;99771.84;;;15.25;63.87
59939;BME280;45801;51.810;19.444;2023-08-12T00:32:54;99775.11;;;15.22;63.96
59939;BME280;45801;51.810;19.444;2023-08-12T00:35:21;99776.63;;;15.19;63.96
59939;BME280;45801;51.810;19.444;2023-08-12T00:37:47;99776.55;;;15.17;64.02
59939;BME280;45801;51.810;19.444;2023-08-12T00:40:14;99776.29;;;15.15;64.21
59939;BME280;45801;51.810;19.444;2023-08-12T00:42:41;99770.95;;;15.13;64.03
59939;BME280;45801;51.810;19.444;2023-08-12T00:45:11;99769.29;;;15.11;64.07
59939;BME280;45801;51.810;19.444;2023-08-12T00:47:41;99774.34;;;15.09;63.84
59939;BME280;45801;51.810;19.444;2023-08-12T00:50:08;99768.58;;;15.06;63.96
59939;BME280;45801;51.810;19.444;2023-08-12T00:52:37;99765.34;;;15.04;63.86
59939;BME280;45801;51.810;19.444;2023-08-12T00:55:03;99763.88;;;15.02;63.61
59939;BME280;45801;51.810;19.444;2023-08-12T00:57:30;99763.83;;;15.01;63.57
59939;BME280;45801;51.810;19.444;2023-08-12T00:59:58;99762.04;;;15.00;63.63
59939;BME280;45801;51.810;19.444;2023-08-12T01:02:25;99759.02;;;14.99;63.71
59939;BME280;45801;51.810;19.444;2023-08-12T01:04:52;99755.24;;;14.97;63.91
59939;BME280;45801;51.810;19.444;2023-08-12T01:07:19;99754.46;;;14.96;63.78
59939;BME280;45801;51.810;19.444;2023-08-12T01:09:46;99758.39;;;14.96;63.63
59939;BME280;45801;51.810;19.444;2023-08-12T01:12:17;99763.15;;;14.97;63.67
59939;BME280;45801;51.810;19.444;2023-08-12T01:14:59;99761.17;;;14.95;63.79
59939;BME280;45801;51.810;19.444;2023-08-12T01:17:29;99758.02;;;14.91;64.00
59939;BME280;45801;51.810;19.444;2023-08-12T01:19:56;99758.38;;;14.91;63.47
59939;BME280;45801;51.810;19.444;2023-08-12T01:22:25;99762.20;;;14.90;63.73
59939;BME280;45801;51.810;19.444;2023-08-12T01:24:53;99764.08;;;14.88;63.71
59939;BME280;45801;51.810;19.444;2023-08-12T01:27:20;99760.27;;;14.85;63.78
59939;BME280;45801;51.810;19.444;2023-08-12T01:29:50;99759.38;;;14.84;63.78
59939;BME280;45801;51.810;19.444;2023-08-12T01:35:10;99760.38;;;14.83;63.79
59939;BME280;45801;51.810;19.444;2023-08-12T01:37:42;99759.28;;;14.82;63.95
59939;BME280;45801;51.810;19.444;2023-08-12T01:40:10;99757.27;;;14.79;63.73
59939;BME280;45801;51.810;19.444;2023-08-12T01:42:39;99759.71;;;14.78;63.65
59939;BME280;45801;51.810;19.444;2023-08-12T01:45:06;99762.83;;;14.77;63.76
59939;BME280;45801;51.810;19.444;2023-08-12T01:47:33;99763.13;;;14.75;63.99
59939;BME280;45801;51.810;19.444;2023-08-12T01:49:59;99762.02;;;14.74;63.84
59939;BME280;45801;51.810;19.444;2023-08-12T01:52:26;99762.52;;;14.73;63.77
59939;BME280;45801;51.810;19.444;2023-08-12T01:54:53;99761.73;;;14.71;63.80
59939;BME280;45801;51.810;19.444;2023-08-12T01:57:19;99760.45;;;14.70;63.78
59939;BME280;45801;51.810;19.444;2023-08-12T01:59:46;99759.87;;;14.68;63.82
59939;BME280;45801;51.810;19.444;2023-08-12T02:02:13;99763.88;;;14.66;63.76
59939;BME280;45801;51.810;19.444;2023-08-12T02:04:40;99763.47;;;14.65;63.65
59939;BME280;45801;51.810;19.444;2023-08-12T02:07:06;99764.67;;;14.64;63.66
59939;BME280;45801;51.810;19.444;2023-08-12T02:09:33;99771.48;;;14.63;63.72
59939;BME280;45801;51.810;19.444;2023-08-12T02:11:59;99765.59;;;14.61;63.70
59939;BME280;45801;51.810;19.444;2023-08-12T02:14:26;99765.16;;;14.59;63.72
59939;BME280;45801;51.810;19.444;2023-08-12T02:16:52;99762.46;;;14.58;63.55
59939;BME280;45801;51.810;19.444;2023-08-12T02:19:20;99763.33;;;14.57;63.52
59939;BME280;45801;51.810;19.444;2023-08-12T02:21:47;99762.06;;;14.56;63.53
59939;BME280;45801;51.810;19.444;2023-08-12T02:24:13;99761.14;;;14.55;63.64
59939;BME280;45801;51.810;19.444;2023-08-12T02:26:40;99763.29;;;14.56;63.53
59939;BME280;45801;51.810;19.444;2023-08-12T02:29:07;99757.63;;;14.56;63.68
59939;BME280;45801;51.810;19.444;2023-08-12T02:31:33;99754.09;;;14.55;63.62
59939;BME280;45801;51.810;19.444;2023-08-12T02:34:00;99751.25;;;14.55;63.25
59939;BME280;45801;51.810;19.444;2023-08-12T02:36:26;99752.63;;;14.54;63.04
59939;BME280;45801;51.810;19.444;2023-08-12T02:38:53;99754.00;;;14.53;63.07
59939;BME280;45801;51.810;19.444;2023-08-12T02:41:19;99751.35;;;14.53;63.12
59939;BME280;45801;51.810;19.444;2023-08-12T02:43:46;99745.52;;;14.52;63.06
59939;BME280;45801;51.810;19.444;2023-08-12T02:46:12;99742.86;;;14.51;62.76
59939;BME280;45801;51.810;19.444;2023-08-12T02:48:42;99740.38;;;14.51;62.70
59939;BME280;45801;51.810;19.444;2023-08-12T02:51:08;99742.59;;;14.49;62.73
59939;BME280;45801;51.810;19.444;2023-08-12T02:53:36;99746.80;;;14.49;62.64
59939;BME280;45801;51.810;19.444;2023-08-12T02:56:03;99744.45;;;14.47;62.70
59939;BME280;45801;51.810;19.444;2023-08-12T02:58:29;99742.09;;;14.45;62.41
59939;BME280;45801;51.810;19.444;2023-08-12T03:00:56;99744.35;;;14.44;62.62
59939;BME280;45801;51.810;19.444;2023-08-12T03:03:22;99745.35;;;14.42;62.76
59939;BME280;45801;51.810;19.444;2023-08-12T03:05:49;99745.48;;;14.41;62.66
59939;BME280;45801;51.810;19.444;2023-08-12T03:08:16;99746.69;;;14.40;62.80
59939;BME280;45801;51.810;19.444;2023-08-12T03:10:44;99748.92;;;14.39;63.07
59939;BME280;45801;51.810;19.444;2023-08-12T03:13:10;99749.77;;;14.38;63.21
59939;BME280;45801;51.810;19.444;2023-08-12T03:15:40;99749.14;;;14.35;63.27
59939;BME280;45801;51.810;19.444;2023-08-12T03:18:06;99749.02;;;14.31;63.31
59939;BME280;45801;51.810;19.444;2023-08-12T03:20:33;99748.56;;;14.29;63.37
59939;BME280;45801;51.810;19.444;2023-08-12T03:22:59;99751.13;;;14.26;63.39
59939;BME280;45801;51.810;19.444;2023-08-12T03:25:26;99750.92;;;14.26;63.20
59939;BME280;45801;51.810;19.444;2023-08-12T03:27:53;99756.92;;;14.26;63.50
59939;BME280;45801;51.810;19.444;2023-08-12T03:30:19;99750.59;;;14.26;63.38
59939;BME280;45801;51.810;19.444;2023-08-12T03:32:46;99748.41;;;14.25;63.51
59939;BME280;45801;51.810;19.444;2023-08-12T03:35:13;99746.24;;;14.23;63.50
59939;BME280;45801;51.810;19.444;2023-08-12T03:37:39;99747.77;;;14.22;63.66
59939;BME280;45801;51.810;19.444;2023-08-12T03:40:06;99749.98;;;14.19;63.82
59939;BME280;45801;51.810;19.444;2023-08-12T03:42:33;99751.19;;;14.19;63.59
59939;BME280;45801;51.810;19.444;2023-08-12T03:45:00;99753.52;;;14.20;63.80
59939;BME280;45801;51.810;19.444;2023-08-12T03:47:26;99751.75;;;14.19;63.99
59939;BME280;45801;51.810;19.444;2023-08-12T03:49:53;99750.90;;;14.20;63.88
59939;BME280;45801;51.810;19.444;2023-08-12T03:52:20;99750.02;;;14.21;63.72
59939;BME280;45801;51.810;19.444;2023-08-12T03:54:46;99750.42;;;14.22;63.84
59939;BME280;45801;51.810;19.444;2023-08-12T03:57:13;99750.06;;;14.22;64.30
59939;BME280;45801;51.810;19.444;2023-08-12T03:59:39;99757.15;;;14.22;64.25
59939;BME280;45801;51.810;19.444;2023-08-12T04:02:06;99751.88;;;14.23;64.35
59939;BME280;45801;51.810;19.444;2023-08-12T04:04:33;99747.50;;;14.24;64.04
59939;BME280;45801;51.810;19.444;2023-08-12T04:06:59;99745.27;;;14.25;64.02
59939;BME280;45801;51.810;19.444;2023-08-12T04:09:26;99747.63;;;14.27;64.15
59939;BME280;45801;51.810;19.444;2023-08-12T04:11:52;99745.04;;;14.29;64.21
59939;BME280;45801;51.810;19.444;2023-08-12T04:14:19;99742.48;;;14.31;64.03
59939;BME280;45801;51.810;19.444;2023-08-12T04:16:46;99746.13;;;14.35;63.95
59939;BME280;45801;51.810;19.444;2023-08-12T04:19:12;99745.00;;;14.38;64.16
59939;BME280;45801;51.810;19.444;2023-08-12T04:21:39;99742.65;;;14.41;64.44
59939;BME280;45801;51.810;19.444;2023-08-12T04:24:06;99742.40;;;14.44;64.27
59939;BME280;45801;51.810;19.444;2023-08-12T04:26:32;99741.83;;;14.47;64.31
59939;BME280;45801;51.810;19.444;2023-08-12T04:29:00;99744.61;;;14.52;64.33
59939;BME280;45801;51.810;19.444;2023-08-12T04:31:26;99747.59;;;14.55;64.70
59939;BME280;45801;51.810;19.444;2023-08-12T04:33:53;99745.90;;;14.58;65.16
59939;BME280;45801;51.810;19.444;2023-08-12T04:36:19;99746.88;;;14.60;65.05
59939;BME280;45801;51.810;19.444;2023-08-12T04:38:46;99749.48;;;14.64;65.13
59939;BME280;45801;51.810;19.444;2023-08-12T04:41:13;99746.84;;;14.69;64.96
59939;BME280;45801;51.810;19.444;2023-08-12T04:43:39;99746.26;;;14.72;64.94
59939;BME280;45801;51.810;19.444;2023-08-12T04:46:06;99744.86;;;14.78;65.12
59939;BME280;45801;51.810;19.444;2023-08-12T04:48:32;99749.98;;;14.83;65.14
59939;BME280;45801;51.810;19.444;2023-08-12T04:50:59;99749.98;;;14.88;65.30
59939;BME280;45801;51.810;19.444;2023-08-12T04:53:29;99752.27;;;14.93;65.83
59939;BME280;45801;51.810;19.444;2023-08-12T04:55:56;99752.26;;;14.98;66.08
59939;BME280;45801;51.810;19.444;2023-08-12T04:58:23;99753.47;;;15.03;65.95
59939;BME280;45801;51.810;19.444;2023-08-12T05:00:50;99753.14;;;15.09;66.40
59939;BME280;45801;51.810;19.444;2023-08-12T05:03:19;99753.35;;;15.15;66.73
59939;BME280;45801;51.810;19.444;2023-08-12T05:05:52;99751.55;;;15.20;67.25
59939;BME280;45801;51.810;19.444;2023-08-12T05:08:19;99754.04;;;15.25;67.65
59939;BME280;45801;51.810;19.444;2023-08-12T05:10:49;99753.33;;;15.31;67.80
59939;BME280;45801;51.810;19.444;2023-08-12T05:13:16;99750.36;;;15.37;67.90
59939;BME280;45801;51.810;19.444;2023-08-12T05:15:46;99747.05;;;15.43;68.17
59939;BME280;45801;51.810;19.444;2023-08-12T05:18:16;99749.20;;;15.50;68.13
59939;BME280;45801;51.810;19.444;2023-08-12T05:20:42;99747.65;;;15.58;68.09
59939;BME280;45801;51.810;19.444;2023-08-12T05:23:09;99745.95;;;15.65;68.09
59939;BME280;45801;51.810;19.444;2023-08-12T05:25:38;99743.69;;;15.72;68.15
59939;BME280;45801;51.810;19.444;2023-08-12T05:28:05;99741.48;;;15.80;68.06
59939;BME280;45801;51.810;19.444;2023-08-12T05:30:32;99739.59;;;15.87;68.01
59939;BME280;45801;51.810;19.444;2023-08-12T05:32:58;99738.02;;;15.94;68.04
59939;BME280;45801;51.810;19.444;2023-08-12T05:35:25;99744.38;;;16.00;67.81
59939;BME280;45801;51.810;19.444;2023-08-12T05:37:51;99744.90;;;16.05;68.46
59939;BME280;45801;51.810;19.444;2023-08-12T05:40:18;99744.73;;;16.12;68.79
59939;BME280;45801;51.810;19.444;2023-08-12T05:42:44;99741.19;;;16.17;69.04
59939;BME280;45801;51.810;19.444;2023-08-12T05:45:11;99742.74;;;16.22;68.97
59939;BME280;45801;51.810;19.444;2023-08-12T05:47:37;99739.54;;;16.28;69.07
59939;BME280;45801;51.810;19.444;2023-08-12T05:50:04;99738.13;;;16.34;68.99
59939;BME280;45801;51.810;19.444;2023-08-12T05:52:32;99739.34;;;16.39;68.62
59939;BME280;45801;51.810;19.444;2023-08-12T05:54:59;99743.42;;;16.47;68.80
59939;BME280;45801;51.810;19.444;2023-08-12T05:57:25;99744.69;;;16.53;68.30
59939;BME280;45801;51.810;19.444;2023-08-12T05:59:52;99743.10;;;16.60;67.71
59939;BME280;45801;51.810;19.444;2023-08-12T06:02:19;99741.00;;;16.68;67.45
59939;BME280;45801;51.810;19.444;2023-08-12T06:04:45;99744.93;;;16.76;67.11
59939;BME280;45801;51.810;19.444;2023-08-12T06:07:12;99746.88;;;16.83;67.27
59939;BME280;45801;51.810;19.444;2023-08-12T06:09:38;99744.95;;;16.89;66.78
59939;BME280;45801;51.810;19.444;2023-08-12T06:12:05;99747.80;;;16.96;66.19
59939;BME280;45801;51.810;19.444;2023-08-12T06:14:32;99747.77;;;17.02;65.75
59939;BME280;45801;51.810;19.444;2023-08-12T06:16:58;99743.00;;;17.09;65.45
59939;BME280;45801;51.810;19.444;2023-08-12T06:19:25;99745.14;;;17.17;64.91
59939;BME280;45801;51.810;19.444;2023-08-12T06:21:52;99745.31;;;17.24;64.40
59939;BME280;45801;51.810;19.444;2023-08-12T06:24:18;99747.64;;;17.32;63.00
59939;BME280;45801;51.810;19.444;2023-08-12T06:26:45;99746.60;;;17.41;62.07
59939;BME280;45801;51.810;19.444;2023-08-12T06:29:11;99745.40;;;17.50;61.80
59939;BME280;45801;51.810;19.444;2023-08-12T06:31:39;99742.73;;;17.57;62.13
59939;BME280;45801;51.810;19.444;2023-08-12T06:34:05;99738.84;;;17.64;61.82
59939;BME280;45801;51.810;19.444;2023-08-12T06:36:32;99737.39;;;17.71;61.87
59939;BME280;45801;51.810;19.444;2023-08-12T06:38:59;99738.28;;;17.80;61.72
59939;BME280;45801;51.810;19.444;2023-08-12T06:41:25;99736.14;;;17.87;58.45
59939;BME280;45801;51.810;19.444;2023-08-12T06:43:52;99734.37;;;17.94;57.44
59939;BME280;45801;51.810;19.444;2023-08-12T06:46:18;99734.73;;;18.02;56.86
59939;BME280;45801;51.810;19.444;2023-08-12T06:48:45;99733.13;;;18.10;57.78
59939;BME280;45801;51.810;19.444;2023-08-12T06:51:11;99731.16;;;18.18;57.69
59939;BME280;45801;51.810;19.444;2023-08-12T06:53:38;99726.34;;;18.25;56.76
59939;BME280;45801;51.810;19.444;2023-08-12T06:56:05;99722.39;;;18.31;56.36
59939;BME280;45801;51.810;19.444;2023-08-12T06:58:32;99721.82;;;18.38;54.70
59939;BME280;45801;51.810;19.444;2023-08-12T07:00:58;99717.36;;;18.47;53.27
59939;BME280;45801;51.810;19.444;2023-08-12T07:03:27;99717.33;;;18.55;54.58
59939;BME280;45801;51.810;19.444;2023-08-12T07:05:54;99717.12;;;18.62;52.18
59939;BME280;45801;51.810;19.444;2023-08-12T07:08:21;99717.77;;;18.69;51.41
59939;BME280;45801;51.810;19.444;2023-08-12T07:10:47;99716.49;;;18.76;52.77
59939;BME280;45801;51.810;19.444;2023-08-12T07:13:14;99718.79;;;18.85;53.24
59939;BME280;45801;51.810;19.444;2023-08-12T07:15:40;99717.33;;;18.91;52.33
59939;BME280;45801;51.810;19.444;2023-08-12T07:18:07;99713.55;;;19.00;51.17
59939;BME280;45801;51.810;19.444;2023-08-12T07:20:33;99717.80;;;19.09;52.21
59939;BME280;45801;51.810;19.444;2023-08-12T07:23:00;99718.80;;;19.16;52.45
59939;BME280;45801;51.810;19.444;2023-08-12T07:25:27;99716.41;;;19.22;50.59
59939;BME280;45801;51.810;19.444;2023-08-12T07:27:53;99718.14;;;19.30;50.68
59939;BME280;45801;51.810;19.444;2023-08-12T07:30:20;99715.97;;;19.39;51.15
59939;BME280;45801;51.810;19.444;2023-08-12T07:32:47;99715.38;;;19.47;48.49
59939;BME280;45801;51.810;19.444;2023-08-12T07:35:13;99714.08;;;19.55;48.75
59939;BME280;45801;51.810;19.444;2023-08-12T07:37:40;99709.93;;;19.63;49.51
59939;BME280;45801;51.810;19.444;2023-08-12T07:40:07;99703.10;;;19.70;50.14
59939;BME280;45801;51.810;19.444;2023-08-12T07:42:35;99705.17;;;19.77;50.51
59939;BME280;45801;51.810;19.444;2023-08-12T07:45:01;99705.64;;;19.85;50.32
59939;BME280;45801;51.810;19.444;2023-08-12T07:47:29;99705.36;;;19.90;48.98
59939;BME280;45801;51.810;19.444;2023-08-12T07:49:56;99704.38;;;19.97;49.45
59939;BME280;45801;51.810;19.444;2023-08-12T07:52:22;99699.13;;;20.02;48.58
59939;BME280;45801;51.810;19.444;2023-08-12T07:54:49;99697.06;;;20.09;49.24
59939;BME280;45801;51.810;19.444;2023-08-12T07:57:15;99699.98;;;20.15;49.25
59939;BME280;45801;51.810;19.444;2023-08-12T07:59:42;99696.31;;;20.21;49.24
59939;BME280;45801;51.810;19.444;2023-08-12T08:02:09;99690.88;;;20.26;47.17
59939;BME280;45801;51.810;19.444;2023-08-12T08:04:35;99687.75;;;20.34;47.39
59939;BME280;45801;51.810;19.444;2023-08-12T08:07:02;99687.29;;;20.41;47.85
59939;BME280;45801;51.810;19.444;2023-08-12T08:09:28;99688.95;;;20.46;47.57
59939;BME280;45801;51.810;19.444;2023-08-12T08:11:55;99688.84;;;20.52;47.59
59939;BME280;45801;51.810;19.444;2023-08-12T08:14:21;99686.23;;;20.59;48.50
59939;BME280;45801;51.810;19.444;2023-08-12T08:16:48;99684.55;;;20.65;48.72
59939;BME280;45801;51.810;19.444;2023-08-12T08:19:14;99688.17;;;20.73;49.51
59939;BME280;45801;51.810;19.444;2023-08-12T08:21:41;99689.13;;;20.78;49.79
59939;BME280;45801;51.810;19.444;2023-08-12T08:24:07;99693.64;;;20.84;49.73
59939;BME280;45801;51.810;19.444;2023-08-12T08:26:37;99695.46;;;20.90;48.61
59939;BME280;45801;51.810;19.444;2023-08-12T08:29:04;99696.58;;;20.95;48.75
59939;BME280;45801;51.810;19.444;2023-08-12T08:31:30;99697.51;;;21.01;49.18
59939;BME280;45801;51.810;19.444;2023-08-12T08:33:56;99698.10;;;21.07;48.48
59939;BME280;45801;51.810;19.444;2023-08-12T08:36:23;99693.67;;;21.11;46.14
59939;BME280;45801;51.810;19.444;2023-08-12T08:38:50;99692.82;;;21.16;47.35
59939;BME280;45801;51.810;19.444;2023-08-12T08:41:17;99693.23;;;21.22;46.98
59939;BME280;45801;51.810;19.444;2023-08-12T08:43:47;99688.63;;;21.27;46.91
59939;BME280;45801;51.810;19.444;2023-08-12T08:46:15;99683.48;;;21.30;45.87
59939;BME280;45801;51.810;19.444;2023-08-12T08:48:43;99683.17;;;21.36;47.32
59939;BME280;45801;51.810;19.444;2023-08-12T08:51:11;99684.10;;;21.43;47.24
59939;BME280;45801;51.810;19.444;2023-08-12T08:53:38;99683.44;;;21.49;47.90
59939;BME280;45801;51.810;19.444;2023-08-12T08:56:06;99682.61;;;21.55;48.02
59939;BME280;45801;51.810;19.444;2023-08-12T08:58:33;99676.40;;;21.60;46.41
59939;BME280;45801;51.810;19.444;2023-08-12T09:01:01;99673.58;;;21.64;46.29
59939;BME280;45801;51.810;19.444;2023-08-12T09:03:29;99669.84;;;21.68;45.82
59939;BME280;45801;51.810;19.444;2023-08-12T09:05:57;99673.27;;;21.74;47.11
59939;BME280;45801;51.810;19.444;2023-08-12T09:08:24;99673.85;;;21.81;45.07
59939;BME280;45801;51.810;19.444;2023-08-12T09:10:52;99669.94;;;21.84;43.45
59939;BME280;45801;51.810;19.444;2023-08-12T09:13:19;99668.34;;;21.87;44.64
59939;BME280;45801;51.810;19.444;2023-08-12T09:15:45;99665.69;;;21.92;44.50
59939;BME280;45801;51.810;19.444;2023-08-12T09:18:12;99663.58;;;21.97;45.28
59939;BME280;45801;51.810;19.444;2023-08-12T09:20:38;99656.64;;;22.04;46.06
59939;BME280;45801;51.810;19.444;2023-08-12T09:23:06;99653.98;;;22.11;46.64
59939;BME280;45801;51.810;19.444;2023-08-12T09:25:35;99645.80;;;22.17;45.92
59939;BME280;45801;51.810;19.444;2023-08-12T09:28:02;99638.50;;;22.22;43.80
59939;BME280;45801;51.810;19.444;2023-08-12T09:30:29;99635.66;;;22.28;45.42
59939;BME280;45801;51.810;19.444;2023-08-12T09:33:05;99636.41;;;22.34;45.19
59939;BME280;45801;51.810;19.444;2023-08-12T09:35:36;99638.59;;;22.43;46.69
59939;BME280;45801;51.810;19.444;2023-08-12T09:38:14;99636.44;;;22.52;45.52
59939;BME280;45801;51.810;19.444;2023-08-12T09:40:41;99631.81;;;22.57;44.92
59939;BME280;45801;51.810;19.444;2023-08-12T09:43:09;99624.67;;;22.62;44.26
59939;BME280;45801;51.810;19.444;2023-08-12T09:45:35;99619.48;;;22.66;43.75
59939;BME280;45801;51.810;19.444;2023-08-12T09:48:02;99610.40;;;22.72;43.92
59939;BME280;45801;51.810;19.444;2023-08-12T09:50:29;99610.75;;;22.79;45.04
59939;BME280;45801;51.810;19.444;2023-08-12T09:52:56;99611.82;;;22.86;44.53
59939;BME280;45801;51.810;19.444;2023-08-12T09:55:24;99607.90;;;22.90;42.21
59939;BME280;45801;51.810;19.444;2023-08-12T09:57:52;99604.14;;;22.94;42.34
59939;BME280;45801;51.810;19.444;2023-08-12T10:00:21;99605.20;;;22.99;41.92
59939;BME280;45801;51.810;19.444;2023-08-12T10:02:50;99602.86;;;23.05;42.53
59939;BME280;45801;51.810;19.444;2023-08-12T10:05:26;99603.06;;;23.14;43.83
59939;BME280;45801;51.810;19.444;2023-08-12T10:07:54;99596.80;;;23.21;42.84
59939;BME280;45801;51.810;19.444;2023-08-12T10:10:21;99593.58;;;23.24;42.21
59939;BME280;45801;51.810;19.444;2023-08-12T10:12:51;99587.85;;;23.27;42.69
59939;BME280;45801;51.810;19.444;2023-08-12T10:15:18;99586.94;;;23.33;41.12
59939;BME280;45801;51.810;19.444;2023-08-12T10:17:45;99587.64;;;23.38;42.30
59939;BME280;45801;51.810;19.444;2023-08-12T10:20:14;99587.08;;;23.43;41.91
59939;BME280;45801;51.810;19.444;2023-08-12T10:22:42;99582.95;;;23.50;41.76
59939;BME280;45801;51.810;19.444;2023-08-12T10:25:13;99580.60;;;23.57;42.41
59939;BME280;45801;51.810;19.444;2023-08-12T10:27:41;99579.33;;;23.63;42.92
59939;BME280;45801;51.810;19.444;2023-08-12T10:30:08;99577.70;;;23.71;42.29
59939;BME280;45801;51.810;19.444;2023-08-12T10:32:36;99576.04;;;23.79;42.71
59939;BME280;45801;51.810;19.444;2023-08-12T10:35:03;99583.90;;;23.87;41.37
59939;BME280;45801;51.810;19.444;2023-08-12T10:37:32;99584.22;;;23.94;41.35
59939;BME280;45801;51.810;19.444;2023-08-12T10:40:02;99581.67;;;24.03;41.90
59939;BME280;45801;51.810;19.444;2023-08-12T10:42:45;99579.64;;;24.12;42.31
59939;BME280;45801;51.810;19.444;2023-08-12T10:45:16;99578.34;;;24.22;42.49
59939;BME280;45801;51.810;19.444;2023-08-12T10:47:48;99582.38;;;24.31;42.09
59939;BME280;45801;51.810;19.444;2023-08-12T10:50:22;99582.86;;;24.39;40.33
59939;BME280;45801;51.810;19.444;2023-08-12T10:52:53;99574.77;;;24.44;41.16
59939;BME280;45801;51.810;19.444;2023-08-12T10:55:22;99569.70;;;24.53;41.82
59939;BME280;45801;51.810;19.444;2023-08-12T10:57:50;99567.13;;;24.64;42.36
59939;BME280;45801;51.810;19.444;2023-08-12T11:00:24;99572.59;;;24.75;42.33
59939;BME280;45801;51.810;19.444;2023-08-12T11:02:54;99577.52;;;24.84;40.58
59939;BME280;45801;51.810;19.444;2023-08-12T11:05:21;99574.23;;;24.92;39.86
59939;BME280;45801;51.810;19.444;2023-08-12T11:07:56;99570.02;;;25.00;40.95
59939;BME280;45801;51.810;19.444;2023-08-12T11:10:25;99564.35;;;25.11;40.94
59939;BME280;45801;51.810;19.444;2023-08-12T11:15:31;99552.87;;;25.30;40.46
59939;BME280;45801;51.810;19.444;2023-08-12T11:18:17;99545.60;;;25.39;40.16
59939;BME280;45801;51.810;19.444;2023-08-12T11:20:45;99539.02;;;25.49;40.10
59939;BME280;45801;51.810;19.444;2023-08-12T11:23:13;99538.55;;;25.59;40.18
59939;BME280;45801;51.810;19.444;2023-08-12T11:25:41;99531.83;;;25.65;39.77
59939;BME280;45801;51.810;19.444;2023-08-12T11:28:08;99531.89;;;25.72;39.30
59939;BME280;45801;51.810;19.444;2023-08-12T11:30:35;99535.59;;;25.79;38.29
59939;BME280;45801;51.810;19.444;2023-08-12T11:33:02;99533.16;;;25.86;40.21
59939;BME280;45801;51.810;19.444;2023-08-12T11:35:29;99532.52;;;25.92;38.19
59939;BME280;45801;51.810;19.444;2023-08-12T11:37:57;99528.00;;;25.95;37.16
59939;BME280;45801;51.810;19.444;2023-08-12T11:40:26;99521.50;;;26.00;38.79
59939;BME280;45801;51.810;19.444;2023-08-12T11:42:54;99520.14;;;26.06;39.19
59939;BME280;45801;51.810;19.444;2023-08-12T11:45:24;99516.27;;;26.13;38.96
59939;BME280;45801;51.810;19.444;2023-08-12T11:47:51;99508.09;;;26.20;39.04
59939;BME280;45801;51.810;19.444;2023-08-12T11:50:24;99507.56;;;26.30;39.36
59939;BME280;45801;51.810;19.444;2023-08-12T11:52:52;99508.67;;;26.40;39.01
59939;BME280;45801;51.810;19.444;2023-08-12T11:55:18;99509.80;;;26.46;39.15
59939;BME280;45801;51.810;19.444;2023-08-12T11:57:45;99508.65;;;26.51;37.22
59939;BME280;45801;51.810;19.444;2023-08-12T12:00:13;99502.86;;;26.53;37.62
59939;BME280;45801;51.810;19.444;2023-08-12T12:02:46;99496.85;;;26.58;38.18
59939;BME280;45801;51.810;19.444;2023-08-12T12:05:14;99495.13;;;26.65;37.71
59939;BME280;45801;51.810;19.444;2023-08-12T12:07:41;99492.20;;;26.69;37.47
59939;BME280;45801;51.810;19.444;2023-08-12T12:10:18;99495.71;;;26.74;37.85
59939;BME280;45801;51.810;19.444;2023-08-12T12:12:44;99490.95;;;26.78;38.10
59939;BME280;45801;51.810;19.444;2023-08-12T12:15:13;99489.63;;;26.82;37.67
59939;BME280;45801;51.810;19.444;2023-08-12T12:17:41;99497.46;;;26.86;36.73
59939;BME280;45801;51.810;19.444;2023-08-12T12:20:08;99495.08;;;26.88;35.68
59939;BME280;45801;51.810;19.444;2023-08-12T12:22:38;99497.21;;;26.89;37.04
59939;BME280;45801;51.810;19.444;2023-08-12T12:25:08;99498.23;;;26.93;36.29
59939;BME280;45801;51.810;19.444;2023-08-12T12:27:37;99491.35;;;26.95;36.04
59939;BME280;45801;51.810;19.444;2023-08-12T12:30:05;99483.73;;;26.99;36.68
59939;BME280;45801;51.810;19.444;2023-08-12T12:32:31;99482.19;;;27.04;37.75
59939;BME280;45801;51.810;19.444;2023-08-12T12:34:58;99479.67;;;27.04;36.40
59939;BME280;45801;51.810;19.444;2023-08-12T12:37:24;99474.80;;;27.05;37.28
59939;BME280;45801;51.810;19.444;2023-08-12T12:39:51;99470.70;;;27.12;37.64
59939;BME280;45801;51.810;19.444;2023-08-12T12:42:18;99469.85;;;27.19;37.18
59939;BME280;45801;51.810;19.444;2023-08-12T12:44:44;99463.85;;;27.22;36.49
59939;BME280;45801;51.810;19.444;2023-08-12T12:47:11;99457.02;;;27.22;37.27
59939;BME280;45801;51.810;19.444;2023-08-12T12:49:39;99455.50;;;27.26;38.14
59939;BME280;45801;51.810;19.444;2023-08-12T12:52:07;99454.14;;;27.30;38.46
59939;BME280;45801;51.810;19.444;2023-08-12T12:54:34;99451.09;;;27.30;38.09
59939;BME280;45801;51.810;19.444;2023-08-12T12:57:00;99446.58;;;27.32;38.22